createdAt,value
2018-12-15T00:02:21.470Z,23.02
2018-12-15T00:04:49.917Z,25.48
2018-12-15T00:07:18.417Z,24.32
2018-12-15T00:09:46.810Z,25.23
2018-12-15T00:12:15.335Z,24.05
2018-12-15T00:14:44.221Z,23.35
2018-12-15T00:17:12.765Z,22.33
2018-12-15T00:19:41.506Z,22.27
2018-12-15T00:22:10.006Z,20.85
2018-12-15T00:24:38.279Z,19.85
2018-12-15T00:27:06.643Z,21.68
2018-12-15T00:29:34.888Z,21.15
2018-12-15T00:32:03.161Z,19.62
2018-12-15T00:34:31.538Z,19.00
2018-12-15T00:36:59.782Z,19.60
2018-12-15T00:39:28.079Z,18.10
2018-12-15T00:41:56.317Z,18.27
2018-12-15T00:44:24.525Z,17.48
2018-12-15T00:46:52.769Z,19.00
2018-12-15T00:49:21.056Z,21.33
2018-12-15T00:51:49.343Z,20.50
2018-12-15T00:54:17.605Z,18.75
2018-12-15T00:56:45.888Z,20.72
2018-12-15T00:59:14.110Z,19.48
2018-12-15T01:01:42.478Z,19.35
2018-12-15T01:04:10.745Z,18.73
2018-12-15T01:06:39.233Z,19.00
2018-12-15T01:09:07.552Z,19.97
2018-12-15T01:11:35.803Z,20.55
2018-12-15T01:14:04.135Z,19.70
2018-12-15T01:16:32.395Z,20.77
2018-12-15T01:19:00.708Z,21.80
2018-12-15T01:21:28.991Z,18.98
2018-12-15T01:23:57.250Z,21.05
2018-12-15T01:26:25.527Z,19.85
2018-12-15T01:28:53.841Z,19.62
2018-12-15T01:31:22.098Z,19.70
2018-12-15T01:33:50.511Z,19.95
2018-12-15T01:36:18.804Z,19.17
2018-12-15T01:38:47.117Z,17.80
2018-12-15T01:41:15.464Z,18.07
2018-12-15T01:43:43.765Z,20.23
2018-12-15T01:46:12.066Z,18.42
2018-12-15T01:48:40.309Z,21.70
2018-12-15T01:51:08.646Z,17.75
2018-12-15T01:53:37.057Z,15.85
2018-12-15T01:56:05.377Z,17.10
2018-12-15T01:58:33.589Z,19.33
2018-12-15T02:01:01.889Z,15.48
2018-12-15T02:03:30.278Z,14.00
2018-12-15T02:05:58.567Z,15.90
2018-12-15T02:08:27.022Z,16.67
2018-12-15T02:10:55.302Z,16.70
2018-12-15T02:13:23.521Z,17.15
2018-12-15T02:15:51.814Z,15.45
2018-12-15T02:18:20.213Z,14.83
2018-12-15T02:20:48.637Z,15.50
2018-12-15T02:23:17.075Z,14.65
2018-12-15T02:25:45.396Z,16.10
2018-12-15T02:28:13.673Z,15.72
2018-12-15T02:30:42.011Z,14.18
2018-12-15T02:33:10.590Z,14.50
2018-12-15T02:35:38.862Z,16.77
2018-12-15T02:38:07.196Z,16.02
2018-12-15T02:40:35.492Z,14.28
2018-12-15T02:43:03.796Z,13.20
2018-12-15T02:45:32.726Z,11.78
2018-12-15T02:48:00.940Z,12.98
2018-12-15T02:50:29.162Z,12.58
2018-12-15T02:52:57.488Z,11.50
2018-12-15T02:55:25.711Z,12.33
2018-12-15T02:57:53.971Z,11.33
2018-12-15T03:00:22.391Z,11.53
2018-12-15T03:02:50.668Z,11.20
2018-12-15T03:05:18.961Z,9.08
2018-12-15T03:07:47.288Z,9.55
2018-12-15T03:10:15.604Z,11.15
2018-12-15T03:12:43.968Z,11.30
2018-12-15T03:15:12.355Z,10.70
2018-12-15T03:17:40.593Z,11.12
2018-12-15T03:20:08.837Z,10.63
2018-12-15T03:22:37.198Z,10.88
2018-12-15T03:25:05.883Z,10.75
2018-12-15T03:27:34.101Z,9.60
2018-12-15T03:30:02.578Z,10.65
2018-12-15T03:32:30.849Z,10.60
2018-12-15T03:34:59.217Z,10.30
2018-12-15T03:37:27.488Z,11.48
2018-12-15T03:39:55.907Z,10.60
2018-12-15T03:42:24.157Z,12.13
2018-12-15T03:44:52.410Z,11.70
2018-12-15T03:47:20.707Z,11.53
2018-12-15T03:49:49.140Z,11.22
2018-12-15T03:52:17.367Z,11.57
2018-12-15T03:54:45.705Z,12.13
2018-12-15T03:57:13.963Z,11.10
2018-12-15T03:59:42.347Z,11.28
2018-12-15T04:02:10.740Z,10.73
2018-12-15T04:04:39.314Z,12.00
2018-12-15T04:07:07.760Z,12.95
2018-12-15T04:09:36.050Z,14.40
2018-12-15T04:12:04.327Z,12.25
2018-12-15T04:14:32.518Z,11.87
2018-12-15T04:17:00.778Z,12.30
2018-12-15T04:19:29.175Z,11.85
2018-12-15T04:22:08.846Z,12.82
2018-12-15T04:24:37.198Z,11.45
2018-12-15T04:27:05.558Z,11.50
2018-12-15T04:29:33.866Z,12.98
2018-12-15T04:32:02.118Z,11.00
2018-12-15T04:34:30.356Z,11.63
2018-12-15T04:36:58.673Z,12.30
2018-12-15T04:39:26.914Z,11.30
2018-12-15T04:41:55.116Z,13.65
2018-12-15T04:44:23.426Z,11.00
2018-12-15T04:46:52.009Z,12.88
2018-12-15T04:49:20.806Z,11.97
2018-12-15T04:51:49.197Z,12.13
2018-12-15T04:54:17.516Z,12.53
2018-12-15T04:56:45.801Z,12.20
2018-12-15T04:59:14.212Z,11.97
2018-12-15T05:01:42.475Z,12.37
2018-12-15T05:04:10.671Z,12.78
2018-12-15T05:06:39.015Z,13.13
2018-12-15T05:09:07.289Z,12.37
2018-12-15T05:11:35.613Z,11.73
2018-12-15T05:14:03.991Z,13.03
2018-12-15T05:16:32.380Z,13.00
2018-12-15T05:19:00.739Z,12.00
2018-12-15T05:21:28.949Z,12.23
2018-12-15T05:23:57.198Z,12.05
2018-12-15T05:26:25.505Z,11.10
2018-12-15T05:28:53.790Z,12.80
2018-12-15T05:31:22.048Z,12.18
2018-12-15T05:33:50.271Z,11.37
2018-12-15T05:36:18.588Z,12.85
2018-12-15T05:38:46.909Z,12.47
2018-12-15T05:41:15.178Z,13.80
2018-12-15T05:43:43.472Z,13.40
2018-12-15T05:46:11.903Z,15.98
2018-12-15T05:48:40.130Z,14.23
2018-12-15T05:51:08.478Z,13.35
2018-12-15T05:53:36.720Z,14.33
2018-12-15T05:56:04.927Z,14.25
2018-12-15T05:58:33.224Z,14.53
2018-12-15T06:01:01.453Z,15.53
2018-12-15T06:03:29.712Z,15.32
2018-12-15T06:05:57.975Z,13.98
2018-12-15T06:08:26.252Z,14.50
2018-12-15T06:10:54.585Z,14.85
2018-12-15T06:13:22.824Z,14.70
2018-12-15T06:15:51.178Z,17.17
2018-12-15T06:18:19.392Z,13.88
2018-12-15T06:20:47.631Z,15.88
2018-12-15T06:23:15.904Z,15.45
2018-12-15T06:25:44.140Z,15.15
2018-12-15T06:28:12.451Z,14.25
2018-12-15T06:30:40.934Z,17.03
2018-12-15T06:33:09.179Z,15.15
2018-12-15T06:35:37.527Z,17.00
2018-12-15T06:38:06.518Z,15.80
2018-12-15T06:40:34.730Z,19.17
2018-12-15T06:43:03.072Z,17.33
2018-12-15T06:45:31.421Z,14.87
2018-12-15T06:47:59.660Z,14.00
2018-12-15T06:50:27.967Z,14.87
2018-12-15T06:52:56.344Z,16.37
2018-12-15T06:55:24.552Z,16.95
2018-12-15T06:57:52.786Z,15.65
2018-12-15T07:00:21.156Z,15.95
2018-12-15T07:02:49.379Z,18.10
2018-12-15T07:05:17.847Z,19.07
2018-12-15T07:07:46.089Z,14.95
2018-12-15T07:10:14.338Z,16.27
2018-12-15T07:12:42.637Z,16.90
2018-12-15T07:15:10.905Z,17.37
2018-12-15T07:17:39.310Z,17.85
2018-12-15T07:20:07.744Z,17.25
2018-12-15T07:22:36.072Z,17.87
2018-12-15T07:25:04.648Z,17.60
2018-12-15T07:27:32.965Z,15.48
2018-12-15T07:30:01.258Z,18.80
2018-12-15T07:32:29.672Z,18.02
2018-12-15T07:35:00.908Z,16.03
2018-12-15T07:37:28.632Z,20.17
2018-12-15T07:39:57.095Z,16.60
2018-12-15T07:42:25.472Z,17.75
2018-12-15T07:44:53.812Z,18.42
2018-12-15T07:47:22.224Z,15.40
2018-12-15T07:49:50.517Z,16.35
2018-12-15T07:52:18.882Z,17.10
2018-12-15T07:54:47.157Z,15.35
2018-12-15T07:57:15.378Z,15.63
2018-12-15T07:59:43.616Z,18.00
2018-12-15T08:02:12.014Z,14.97
2018-12-15T08:04:40.234Z,14.80
2018-12-15T08:07:08.677Z,15.97
2018-12-15T08:09:37.480Z,16.77
2018-12-15T08:12:11.272Z,15.48
2018-12-15T08:14:39.929Z,16.60
2018-12-15T08:17:08.234Z,46.08
2018-12-15T08:19:36.465Z,16.35
2018-12-15T08:22:05.009Z,17.80
2018-12-15T08:24:33.307Z,15.35
2018-12-15T08:27:01.539Z,16.00
2018-12-15T08:29:29.949Z,15.28
2018-12-15T08:31:58.516Z,16.87
2018-12-15T08:34:26.774Z,15.32
2018-12-15T08:36:55.131Z,16.52
2018-12-15T08:39:23.645Z,17.35
2018-12-15T08:41:51.975Z,16.12
2018-12-15T08:44:20.328Z,16.67
2018-12-15T08:46:48.681Z,15.35
2018-12-15T08:49:16.993Z,17.00
2018-12-15T08:51:45.258Z,16.40
2018-12-15T08:54:13.526Z,16.20
2018-12-15T08:56:41.901Z,16.12
2018-12-15T08:59:10.529Z,18.90
2018-12-15T09:01:38.755Z,52.17
2018-12-15T09:04:07.028Z,18.32
2018-12-15T09:06:35.418Z,16.57
2018-12-15T09:09:06.177Z,17.37
2018-12-15T09:11:34.522Z,18.40
2018-12-15T09:14:02.912Z,19.60
2018-12-15T09:16:31.214Z,19.98
2018-12-15T09:18:59.523Z,16.87
2018-12-15T09:21:27.816Z,17.02
2018-12-15T09:23:56.198Z,17.60
2018-12-15T09:26:24.565Z,18.70
2018-12-15T09:28:52.882Z,23.85
2018-12-15T09:31:21.264Z,21.05
2018-12-15T09:33:49.487Z,19.45
2018-12-15T09:36:17.887Z,19.52
2018-12-15T09:38:46.217Z,20.82
2018-12-15T09:41:14.512Z,18.25
2018-12-15T09:43:42.995Z,19.93
2018-12-15T09:46:11.404Z,18.00
2018-12-15T09:48:39.769Z,20.15
2018-12-15T09:51:08.040Z,18.65
2018-12-15T09:53:36.337Z,17.40
2018-12-15T09:56:04.761Z,18.42
2018-12-15T09:58:33.025Z,20.30
2018-12-15T10:01:01.444Z,18.42
2018-12-15T10:03:29.973Z,19.05
2018-12-15T10:05:58.375Z,23.00
2018-12-15T10:08:26.775Z,19.40
2018-12-15T10:10:55.056Z,22.55
2018-12-15T10:13:23.512Z,21.52
2018-12-15T10:15:51.859Z,21.90
2018-12-15T10:18:20.110Z,22.42
2018-12-15T10:20:48.331Z,21.82
2018-12-15T10:23:16.718Z,24.40
2018-12-15T10:25:45.065Z,20.85
2018-12-15T10:28:13.335Z,22.05
2018-12-15T10:30:47.171Z,24.47
2018-12-15T10:33:15.449Z,24.15
2018-12-15T10:35:43.725Z,21.40
2018-12-15T10:38:12.035Z,22.80
2018-12-15T10:40:40.290Z,22.10
2018-12-15T10:43:08.557Z,22.37
2018-12-15T10:45:36.911Z,22.80
2018-12-15T10:48:05.299Z,21.73
2018-12-15T10:57:19.591Z,23.50
2018-12-15T10:59:48.025Z,21.68
2018-12-15T11:02:16.492Z,20.92
2018-12-15T11:04:44.810Z,23.65
2018-12-15T11:07:13.074Z,26.65
2018-12-15T11:09:41.343Z,28.07
2018-12-15T11:12:09.712Z,22.58
2018-12-15T11:14:38.230Z,23.42
2018-12-15T11:17:06.623Z,23.95
2018-12-15T11:19:37.294Z,25.27
2018-12-15T11:22:05.162Z,24.20
2018-12-15T11:24:33.449Z,24.05
2018-12-15T11:27:01.837Z,20.63
2018-12-15T11:29:30.177Z,21.90
2018-12-15T11:31:58.515Z,23.45
2018-12-15T11:34:26.811Z,22.32
2018-12-15T11:36:55.194Z,22.07
2018-12-15T11:39:23.603Z,25.30
2018-12-15T11:41:51.956Z,23.55
2018-12-15T11:44:20.175Z,25.20
2018-12-15T11:46:48.638Z,19.83
2018-12-15T11:49:17.067Z,22.25
2018-12-15T11:51:45.403Z,24.05
2018-12-15T11:54:13.722Z,25.48
2018-12-15T11:56:42.181Z,22.25
2018-12-15T11:59:10.401Z,24.07
2018-12-15T12:01:38.776Z,25.88
2018-12-15T12:04:07.104Z,26.35
2018-12-15T12:06:35.439Z,26.68
2018-12-15T12:09:05.216Z,22.75
2018-12-15T12:11:33.726Z,30.97
2018-12-15T12:14:02.041Z,24.20
2018-12-15T12:16:30.410Z,26.45
2018-12-15T12:18:58.731Z,25.62
2018-12-15T12:21:27.068Z,27.67
2018-12-15T12:23:55.434Z,23.40
2018-12-15T12:26:23.753Z,25.40
2018-12-15T12:28:51.978Z,25.55
2018-12-15T12:31:20.442Z,25.92
2018-12-15T12:33:48.791Z,25.43
2018-12-15T12:36:17.250Z,25.33
2018-12-15T12:38:45.681Z,30.92
2018-12-15T12:41:14.002Z,22.37
2018-12-15T12:43:42.320Z,27.10
2018-12-15T12:46:10.648Z,25.10
2018-12-15T12:48:38.965Z,25.32
2018-12-15T12:51:07.489Z,24.15
2018-12-15T12:53:35.878Z,23.98
2018-12-15T12:56:04.717Z,25.88
2018-12-15T12:58:32.967Z,26.40
2018-12-15T13:01:01.287Z,79.53
2018-12-15T13:03:29.607Z,60.85
2018-12-15T13:05:57.921Z,26.48
2018-12-15T13:08:26.137Z,24.90
2018-12-15T13:10:55.196Z,27.73
2018-12-15T13:13:23.538Z,26.85
2018-12-15T13:15:52.566Z,27.32
2018-12-15T13:18:20.823Z,24.63
2018-12-15T13:20:49.142Z,26.35
2018-12-15T13:23:17.582Z,24.85
2018-12-15T13:25:45.880Z,26.03
2018-12-15T13:28:14.105Z,25.08
2018-12-15T13:30:42.429Z,25.23
2018-12-15T13:33:22.295Z,29.05
2018-12-15T13:35:50.592Z,31.55
2018-12-15T13:38:18.866Z,25.72
2018-12-15T13:40:47.229Z,29.55
2018-12-15T13:43:15.442Z,26.80
2018-12-15T13:45:44.047Z,26.82
2018-12-15T13:48:12.347Z,28.90
2018-12-15T13:50:40.602Z,29.63
2018-12-15T13:53:08.903Z,26.33
2018-12-15T13:55:37.440Z,27.30
2018-12-15T13:58:05.707Z,27.77
2018-12-15T14:00:33.985Z,27.30
2018-12-15T14:03:02.217Z,26.80
2018-12-15T14:05:30.544Z,27.22
2018-12-15T14:07:58.845Z,31.25
2018-12-15T14:10:27.133Z,31.95
2018-12-15T14:12:55.505Z,54.45
2018-12-15T14:15:23.906Z,26.87
2018-12-15T14:17:52.323Z,27.13
2018-12-15T14:20:20.665Z,25.45
2018-12-15T14:22:49.003Z,28.73
2018-12-15T14:25:17.437Z,35.30
2018-12-15T14:27:45.664Z,29.10
2018-12-15T14:30:13.953Z,30.12
2018-12-15T14:32:42.230Z,26.80
2018-12-15T14:35:10.618Z,26.30
2018-12-15T14:37:38.865Z,26.30
2018-12-15T14:40:07.235Z,31.75
2018-12-15T14:42:35.666Z,27.80
2018-12-15T14:45:04.077Z,27.42
2018-12-15T14:47:33.423Z,24.73
2018-12-15T14:50:01.750Z,26.50
2018-12-15T14:52:30.035Z,28.83
2018-12-15T14:54:58.359Z,28.60
2018-12-15T14:57:26.631Z,25.62
2018-12-15T14:59:55.027Z,29.20
2018-12-15T15:02:23.223Z,26.57
2018-12-15T15:04:51.591Z,27.65
2018-12-15T15:07:20.283Z,32.45
2018-12-15T15:09:48.707Z,29.25
2018-12-15T15:12:17.082Z,26.70
2018-12-15T15:14:45.323Z,31.97
2018-12-15T15:17:13.847Z,29.12
2018-12-15T15:19:42.112Z,31.70
2018-12-15T15:22:10.632Z,31.45
2018-12-15T15:24:38.948Z,30.32
2018-12-15T15:27:07.765Z,29.27
2018-12-15T15:29:36.136Z,30.12
2018-12-15T15:32:04.607Z,28.42
2018-12-15T15:34:33.095Z,34.15
2018-12-15T15:37:01.571Z,32.17
2018-12-15T15:39:29.988Z,31.33
2018-12-15T15:41:58.491Z,31.55
2018-12-15T15:44:26.793Z,38.70
2018-12-15T15:46:55.189Z,36.68
2018-12-15T15:49:23.660Z,29.30
2018-12-15T15:51:51.968Z,31.27
2018-12-15T15:54:20.289Z,29.85
2018-12-15T15:56:48.730Z,35.95
2018-12-15T15:59:17.161Z,34.80
2018-12-15T16:01:45.429Z,33.55
2018-12-15T16:04:13.718Z,30.68
2018-12-15T16:06:43.257Z,30.92
2018-12-15T16:09:11.608Z,32.08
2018-12-15T16:11:40.012Z,31.85
2018-12-15T16:14:08.282Z,30.40
2018-12-15T16:16:36.694Z,31.40
2018-12-15T16:19:05.088Z,34.05
2018-12-15T16:21:34.239Z,29.40
2018-12-15T16:24:02.634Z,33.63
2018-12-15T16:26:30.885Z,33.78
2018-12-15T16:28:59.204Z,31.77
2018-12-15T16:31:27.453Z,32.67
2018-12-15T16:33:55.707Z,32.25
2018-12-15T16:36:24.182Z,33.98
2018-12-15T16:38:54.204Z,35.08
2018-12-15T16:41:22.574Z,34.37
2018-12-15T16:43:50.852Z,34.45
2018-12-15T16:46:19.269Z,33.90
2018-12-15T16:48:47.551Z,40.78
2018-12-15T16:51:15.897Z,35.85
2018-12-15T16:53:44.276Z,32.35
2018-12-15T16:56:12.514Z,37.33
2018-12-15T16:58:40.863Z,34.45
2018-12-15T17:01:09.372Z,36.15
2018-12-15T17:03:37.647Z,35.25
2018-12-15T17:06:06.047Z,36.90
2018-12-15T17:08:34.688Z,37.08
2018-12-15T17:11:03.269Z,35.48
2018-12-15T17:13:31.627Z,36.75
2018-12-15T17:16:00.152Z,35.43
2018-12-15T17:18:28.429Z,38.00
2018-12-15T17:20:57.055Z,36.97
2018-12-15T17:23:25.539Z,38.57
2018-12-15T17:25:53.870Z,40.05
2018-12-15T17:28:22.282Z,40.20
2018-12-15T17:30:50.610Z,44.15
2018-12-15T17:33:18.863Z,39.55
2018-12-15T17:35:47.072Z,40.50
2018-12-15T17:38:15.399Z,40.50
2018-12-15T17:40:43.725Z,41.42
2018-12-15T17:43:12.136Z,41.88
2018-12-15T17:45:40.494Z,38.90
2018-12-15T17:48:08.771Z,41.77
2018-12-15T17:50:37.120Z,43.73
2018-12-15T17:53:05.387Z,40.23
2018-12-15T17:55:33.699Z,44.33
2018-12-15T17:58:02.057Z,42.23
2018-12-15T18:00:30.447Z,40.03
2018-12-15T18:02:58.931Z,43.07
2018-12-15T18:05:27.329Z,40.33
2018-12-15T18:07:55.596Z,36.60
2018-12-15T18:10:23.963Z,42.90
2018-12-15T18:12:52.336Z,40.75
2018-12-15T18:15:20.682Z,40.08
2018-12-15T18:17:48.904Z,39.55
2018-12-15T18:20:17.270Z,45.10
2018-12-15T18:22:45.592Z,41.20
2018-12-15T18:25:13.940Z,40.67
2018-12-15T18:27:42.239Z,43.25
2018-12-15T18:30:11.444Z,45.80
2018-12-15T18:32:39.993Z,44.00
2018-12-15T18:35:08.441Z,39.40
2018-12-15T18:37:36.842Z,45.85
2018-12-15T18:40:05.752Z,37.73
2018-12-15T18:42:34.181Z,43.13
2018-12-15T18:45:02.613Z,44.35
2018-12-15T18:47:31.009Z,43.80
2018-12-15T18:49:59.331Z,44.33
2018-12-15T18:52:27.858Z,43.40
2018-12-15T18:54:56.182Z,47.20
2018-12-15T18:57:24.525Z,44.88
2018-12-15T18:59:52.783Z,49.50
2018-12-15T19:02:21.178Z,52.55
2018-12-15T19:04:49.481Z,45.70
2018-12-15T19:07:17.897Z,47.08
2018-12-15T19:09:46.138Z,42.35
2018-12-15T19:12:14.638Z,51.20
2018-12-15T19:14:43.111Z,47.88
2018-12-15T19:17:11.394Z,46.20
2018-12-15T19:19:39.718Z,51.15
2018-12-15T19:22:08.158Z,49.53
2018-12-15T19:24:36.542Z,45.12
2018-12-15T19:27:04.991Z,42.70
2018-12-15T19:29:33.410Z,41.37
2018-12-15T19:32:01.737Z,44.83
2018-12-15T19:34:30.061Z,44.83
2018-12-15T19:36:58.341Z,43.75
2018-12-15T19:39:26.575Z,39.90
2018-12-15T19:41:54.885Z,42.93
2018-12-15T19:44:23.132Z,40.58
2018-12-15T19:46:51.457Z,45.15
2018-12-15T19:49:19.725Z,41.75
2018-12-15T19:51:48.040Z,44.73
2018-12-15T19:54:16.323Z,46.50
2018-12-15T19:56:44.697Z,45.15
2018-12-15T19:59:15.255Z,44.07
2018-12-15T20:01:44.034Z,49.10
2018-12-15T20:04:12.439Z,48.13
2018-12-15T20:06:40.872Z,48.98
2018-12-15T20:09:09.822Z,52.83
2018-12-15T20:11:38.321Z,54.27
2018-12-15T20:14:07.478Z,51.33
2018-12-15T20:16:35.806Z,46.33
2018-12-15T20:19:04.231Z,48.10
2018-12-15T20:23:01.768Z,46.65
2018-12-15T20:25:30.143Z,47.33
2018-12-15T20:27:58.436Z,46.03
2018-12-15T20:30:26.723Z,51.77
2018-12-15T20:32:54.946Z,50.25
2018-12-15T20:35:23.329Z,50.15
2018-12-15T20:37:51.555Z,51.25
2018-12-15T20:40:19.866Z,51.30
2018-12-15T20:42:48.368Z,50.67
2018-12-15T20:45:16.725Z,49.53
2018-12-15T20:47:44.947Z,50.10
2018-12-15T20:50:13.334Z,52.73
2018-12-15T20:52:47.390Z,57.67
2018-12-15T20:55:12.156Z,50.48
2018-12-15T20:57:40.449Z,53.15
2018-12-15T21:00:09.499Z,56.28
2018-12-15T21:02:37.841Z,58.27
2018-12-15T21:05:06.351Z,56.13
2018-12-15T21:07:34.711Z,51.10
2018-12-15T21:10:03.523Z,54.18
2018-12-15T21:12:31.919Z,55.08
2018-12-15T21:15:04.510Z,55.10
2018-12-15T21:17:32.735Z,50.80
2018-12-15T21:20:01.164Z,54.42
2018-12-15T21:22:29.403Z,59.35
2018-12-15T21:24:57.685Z,59.38
2018-12-15T21:27:25.995Z,57.67
2018-12-15T21:29:54.303Z,57.40
2018-12-15T21:32:22.676Z,56.20
2018-12-15T21:34:50.948Z,53.25
2018-12-15T21:37:19.375Z,55.43
2018-12-15T21:39:47.707Z,57.40
2018-12-15T21:42:16.063Z,60.20
2018-12-15T21:44:44.377Z,57.30
2018-12-15T21:47:12.755Z,59.93
2018-12-15T21:49:41.008Z,59.53
2018-12-15T21:52:09.373Z,58.03
2018-12-15T21:54:37.743Z,56.05
2018-12-15T21:57:06.135Z,60.35
2018-12-15T21:59:34.434Z,63.95
2018-12-15T22:02:02.689Z,59.58
2018-12-15T22:04:31.102Z,54.80
2018-12-15T22:06:59.295Z,56.90
2018-12-15T22:09:27.641Z,57.67
2018-12-15T22:11:57.269Z,65.95
2018-12-15T22:14:25.545Z,62.13
2018-12-15T22:16:53.866Z,57.43
2018-12-15T22:19:22.155Z,60.33
2018-12-15T22:21:50.606Z,58.20
2018-12-15T22:24:18.955Z,62.27
2018-12-15T22:26:47.505Z,59.90
2018-12-15T22:29:15.801Z,61.90
2018-12-15T22:31:45.203Z,64.50
2018-12-15T22:34:13.429Z,59.43
2018-12-15T22:36:41.684Z,65.12
2018-12-15T22:39:09.999Z,61.33
2018-12-15T22:41:38.318Z,59.48
2018-12-15T22:44:06.552Z,69.22
2018-12-15T22:46:35.399Z,72.27
2018-12-15T22:49:03.864Z,71.87
2018-12-15T22:51:32.243Z,72.10
2018-12-15T22:54:00.582Z,64.80
2018-12-15T22:56:28.894Z,64.35
2018-12-15T22:58:57.273Z,71.65
2018-12-15T23:01:25.713Z,61.15
2018-12-15T23:03:54.034Z,57.80
2018-12-15T23:06:22.281Z,62.83
2018-12-15T23:08:50.575Z,62.40
2018-12-15T23:11:18.867Z,60.90
2018-12-15T23:13:47.082Z,62.55
2018-12-15T23:16:15.351Z,59.48
2018-12-15T23:18:43.644Z,60.33
2018-12-15T23:21:12.026Z,65.47
2018-12-15T23:23:40.329Z,61.27
2018-12-15T23:26:08.628Z,57.03
2018-12-15T23:28:36.934Z,63.15
2018-12-15T23:31:05.343Z,59.95
2018-12-15T23:33:33.672Z,57.00
2018-12-15T23:36:02.160Z,61.83
2018-12-15T23:38:30.397Z,59.50
2018-12-15T23:40:58.761Z,59.38
2018-12-15T23:43:27.004Z,56.10
2018-12-15T23:45:55.320Z,59.13
2018-12-15T23:48:23.734Z,56.07
2018-12-15T23:50:51.979Z,65.70
2018-12-15T23:53:20.281Z,56.77
2018-12-15T23:55:48.499Z,53.78
2018-12-15T23:58:16.749Z,58.25
